sensor_id;sensor_type;location;lat;lon;timestamp;temperature;humidity
70456;DHT22;57916;51.996;5.180;2023-05-16T00:00:38;14.70;59.60
70456;DHT22;57916;51.996;5.180;2023-05-16T00:03:05;14.80;59.70
70456;DHT22;57916;51.996;5.180;2023-05-16T00:05:32;14.70;59.30
70456;DHT22;57916;51.996;5.180;2023-05-16T00:07:59;14.70;59.30
70456;DHT22;57916;51.996;5.180;2023-05-16T00:10:26;14.70;59.30
70456;DHT22;57916;51.996;5.180;2023-05-16T00:12:53;14.60;59.20
70456;DHT22;57916;51.996;5.180;2023-05-16T00:15:20;14.60;59.10
70456;DHT22;57916;51.996;5.180;2023-05-16T00:17:48;14.60;59.10
70456;DHT22;57916;51.996;5.180;2023-05-16T00:20:15;14.60;59.00
70456;DHT22;57916;51.996;5.180;2023-05-16T00:22:49;14.60;59.00
70456;DHT22;57916;51.996;5.180;2023-05-16T00:25:16;14.60;58.90
70456;DHT22;57916;51.996;5.180;2023-05-16T00:27:43;14.60;58.80
70456;DHT22;57916;51.996;5.180;2023-05-16T00:30:10;14.60;58.80
70456;DHT22;57916;51.996;5.180;2023-05-16T00:32:38;14.60;58.80
70456;DHT22;57916;51.996;5.180;2023-05-16T00:35:06;14.60;58.90
70456;DHT22;57916;51.996;5.180;2023-05-16T00:37:37;14.60;58.70
70456;DHT22;57916;51.996;5.180;2023-05-16T00:40:05;14.50;58.70
70456;DHT22;57916;51.996;5.180;2023-05-16T00:42:32;14.50;58.50
70456;DHT22;57916;51.996;5.180;2023-05-16T00:44:59;14.60;58.60
70456;DHT22;57916;51.996;5.180;2023-05-16T00:47:27;14.50;58.60
70456;DHT22;57916;51.996;5.180;2023-05-16T00:49:54;14.50;58.60
70456;DHT22;57916;51.996;5.180;2023-05-16T00:52:22;14.60;58.30
70456;DHT22;57916;51.996;5.180;2023-05-16T00:54:50;14.50;58.50
70456;DHT22;57916;51.996;5.180;2023-05-16T00:57:18;14.50;58.50
70456;DHT22;57916;51.996;5.180;2023-05-16T00:59:48;14.50;58.60
70456;DHT22;57916;51.996;5.180;2023-05-16T01:02:16;14.40;58.70
70456;DHT22;57916;51.996;5.180;2023-05-16T01:04:45;14.40;58.60
70456;DHT22;57916;51.996;5.180;2023-05-16T01:07:14;14.40;58.70
70456;DHT22;57916;51.996;5.180;2023-05-16T01:09:41;14.40;59.00
70456;DHT22;57916;51.996;5.180;2023-05-16T01:15:20;14.30;59.10
70456;DHT22;57916;51.996;5.180;2023-05-16T01:23:40;14.30;59.30
70456;DHT22;57916;51.996;5.180;2023-05-16T01:26:26;14.30;59.40
70456;DHT22;57916;51.996;5.180;2023-05-16T01:28:54;14.30;59.30
70456;DHT22;57916;51.996;5.180;2023-05-16T01:31:22;14.30;59.40
70456;DHT22;57916;51.996;5.180;2023-05-16T01:33:50;14.20;59.30
70456;DHT22;57916;51.996;5.180;2023-05-16T01:44:45;14.20;59.30
70456;DHT22;57916;51.996;5.180;2023-05-16T01:47:16;14.20;59.30
70456;DHT22;57916;51.996;5.180;2023-05-16T01:50:15;14.20;59.50
70456;DHT22;57916;51.996;5.180;2023-05-16T01:55:32;14.10;59.50
70456;DHT22;57916;51.996;5.180;2023-05-16T01:58:02;14.10;59.70
70456;DHT22;57916;51.996;5.180;2023-05-16T02:00:30;14.10;59.50
70456;DHT22;57916;51.996;5.180;2023-05-16T02:02:58;14.00;59.90
70456;DHT22;57916;51.996;5.180;2023-05-16T02:05:25;14.00;60.00
70456;DHT22;57916;51.996;5.180;2023-05-16T02:07:53;14.00;60.10
70456;DHT22;57916;51.996;5.180;2023-05-16T02:10:20;14.00;59.70
70456;DHT22;57916;51.996;5.180;2023-05-16T02:12:49;14.00;59.80
70456;DHT22;57916;51.996;5.180;2023-05-16T02:15:16;14.00;59.80
70456;DHT22;57916;51.996;5.180;2023-05-16T02:17:43;13.90;59.70
70456;DHT22;57916;51.996;5.180;2023-05-16T02:20:10;13.90;59.90
70456;DHT22;57916;51.996;5.180;2023-05-16T02:22:37;13.90;59.90
70456;DHT22;57916;51.996;5.180;2023-05-16T02:25:13;13.90;59.90
70456;DHT22;57916;51.996;5.180;2023-05-16T02:27:41;13.80;60.00
70456;DHT22;57916;51.996;5.180;2023-05-16T02:30:10;13.90;60.40
70456;DHT22;57916;51.996;5.180;2023-05-16T02:32:38;13.90;60.10
70456;DHT22;57916;51.996;5.180;2023-05-16T02:35:07;13.80;60.30
70456;DHT22;57916;51.996;5.180;2023-05-16T02:37:34;13.80;60.30
70456;DHT22;57916;51.996;5.180;2023-05-16T02:40:01;13.80;60.50
70456;DHT22;57916;51.996;5.180;2023-05-16T02:42:31;13.80;60.30
70456;DHT22;57916;51.996;5.180;2023-05-16T02:44:58;13.80;60.50
70456;DHT22;57916;51.996;5.180;2023-05-16T02:47:25;13.80;60.40
70456;DHT22;57916;51.996;5.180;2023-05-16T02:49:52;13.70;60.60
70456;DHT22;57916;51.996;5.180;2023-05-16T02:52:19;13.80;60.70
70456;DHT22;57916;51.996;5.180;2023-05-16T02:54:46;13.70;60.40
70456;DHT22;57916;51.996;5.180;2023-05-16T02:57:33;13.70;60.40
70456;DHT22;57916;51.996;5.180;2023-05-16T03:00:00;13.70;60.30
70456;DHT22;57916;51.996;5.180;2023-05-16T03:02:27;13.70;60.60
70456;DHT22;57916;51.996;5.180;2023-05-16T03:04:54;13.60;60.50
70456;DHT22;57916;51.996;5.180;2023-05-16T03:07:21;13.60;60.60
70456;DHT22;57916;51.996;5.180;2023-05-16T03:09:48;13.60;60.50
70456;DHT22;57916;51.996;5.180;2023-05-16T03:12:17;13.60;60.80
70456;DHT22;57916;51.996;5.180;2023-05-16T03:14:44;13.60;60.60
70456;DHT22;57916;51.996;5.180;2023-05-16T03:17:11;13.60;60.70
70456;DHT22;57916;51.996;5.180;2023-05-16T03:19:38;13.60;61.00
70456;DHT22;57916;51.996;5.180;2023-05-16T03:22:05;13.50;61.10
70456;DHT22;57916;51.996;5.180;2023-05-16T03:24:32;13.50;61.10
70456;DHT22;57916;51.996;5.180;2023-05-16T03:26:59;13.50;61.40
70456;DHT22;57916;51.996;5.180;2023-05-16T03:29:26;13.50;61.50
70456;DHT22;57916;51.996;5.180;2023-05-16T03:31:53;13.50;61.50
70456;DHT22;57916;51.996;5.180;2023-05-16T03:34:20;13.50;61.70
70456;DHT22;57916;51.996;5.180;2023-05-16T03:36:48;13.50;61.70
70456;DHT22;57916;51.996;5.180;2023-05-16T03:39:16;13.50;61.70
70456;DHT22;57916;51.996;5.180;2023-05-16T03:41:43;13.50;61.30
70456;DHT22;57916;51.996;5.180;2023-05-16T03:44:10;13.50;61.60
70456;DHT22;57916;51.996;5.180;2023-05-16T03:46:37;13.50;61.40
70456;DHT22;57916;51.996;5.180;2023-05-16T03:49:04;13.50;61.30
70456;DHT22;57916;51.996;5.180;2023-05-16T03:51:31;13.40;61.10
70456;DHT22;57916;51.996;5.180;2023-05-16T03:53:58;13.40;61.00
70456;DHT22;57916;51.996;5.180;2023-05-16T03:56:26;13.40;60.90
70456;DHT22;57916;51.996;5.180;2023-05-16T03:58:53;13.40;61.00
70456;DHT22;57916;51.996;5.180;2023-05-16T04:01:20;13.40;60.80
70456;DHT22;57916;51.996;5.180;2023-05-16T04:03:46;13.40;60.90
70456;DHT22;57916;51.996;5.180;2023-05-16T04:06:13;13.30;60.90
70456;DHT22;57916;51.996;5.180;2023-05-16T04:08:41;13.30;61.10
70456;DHT22;57916;51.996;5.180;2023-05-16T04:11:10;13.30;61.10
70456;DHT22;57916;51.996;5.180;2023-05-16T04:13:37;13.30;61.30
70456;DHT22;57916;51.996;5.180;2023-05-16T04:16:05;13.30;61.30
70456;DHT22;57916;51.996;5.180;2023-05-16T04:18:32;13.30;61.20
70456;DHT22;57916;51.996;5.180;2023-05-16T04:20:59;13.30;61.60
70456;DHT22;57916;51.996;5.180;2023-05-16T04:23:26;13.30;61.90
70456;DHT22;57916;51.996;5.180;2023-05-16T04:25:53;13.30;61.90
70456;DHT22;57916;51.996;5.180;2023-05-16T04:28:22;13.30;62.10
70456;DHT22;57916;51.996;5.180;2023-05-16T04:30:49;13.30;62.20
70456;DHT22;57916;51.996;5.180;2023-05-16T04:33:17;13.30;62.00
70456;DHT22;57916;51.996;5.180;2023-05-16T04:35:44;13.30;62.00
70456;DHT22;57916;51.996;5.180;2023-05-16T04:38:11;13.30;62.00
70456;DHT22;57916;51.996;5.180;2023-05-16T04:40:38;13.30;62.10
70456;DHT22;57916;51.996;5.180;2023-05-16T04:43:07;13.40;62.20
70456;DHT22;57916;51.996;5.180;2023-05-16T04:45:34;13.40;62.20
70456;DHT22;57916;51.996;5.180;2023-05-16T04:48:03;13.40;62.20
70456;DHT22;57916;51.996;5.180;2023-05-16T04:50:30;13.50;62.20
70456;DHT22;57916;51.996;5.180;2023-05-16T04:52:57;13.50;62.20
70456;DHT22;57916;51.996;5.180;2023-05-16T04:55:24;13.50;62.20
70456;DHT22;57916;51.996;5.180;2023-05-16T04:57:51;13.50;62.20
70456;DHT22;57916;51.996;5.180;2023-05-16T05:00:18;13.60;62.40
70456;DHT22;57916;51.996;5.180;2023-05-16T05:02:45;13.60;62.20
70456;DHT22;57916;51.996;5.180;2023-05-16T05:05:12;13.60;62.30
70456;DHT22;57916;51.996;5.180;2023-05-16T05:07:40;13.70;62.30
70456;DHT22;57916;51.996;5.180;2023-05-16T05:10:07;13.70;62.30
70456;DHT22;57916;51.996;5.180;2023-05-16T05:12:34;13.70;62.40
70456;DHT22;57916;51.996;5.180;2023-05-16T05:15:02;13.80;62.70
70456;DHT22;57916;51.996;5.180;2023-05-16T05:17:29;13.80;62.90
70456;DHT22;57916;51.996;5.180;2023-05-16T05:19:56;13.90;62.90
70456;DHT22;57916;51.996;5.180;2023-05-16T05:22:23;13.90;63.00
70456;DHT22;57916;51.996;5.180;2023-05-16T05:24:50;13.90;62.80
70456;DHT22;57916;51.996;5.180;2023-05-16T05:27:17;14.00;62.70
70456;DHT22;57916;51.996;5.180;2023-05-16T05:29:44;14.00;62.50
70456;DHT22;57916;51.996;5.180;2023-05-16T05:32:11;14.10;62.60
70456;DHT22;57916;51.996;5.180;2023-05-16T05:34:38;14.10;63.30
70456;DHT22;57916;51.996;5.180;2023-05-16T05:37:05;14.20;62.40
70456;DHT22;57916;51.996;5.180;2023-05-16T05:39:32;14.20;62.50
70456;DHT22;57916;51.996;5.180;2023-05-16T05:41:59;14.30;62.10
70456;DHT22;57916;51.996;5.180;2023-05-16T05:44:26;14.30;61.90
70456;DHT22;57916;51.996;5.180;2023-05-16T05:46:53;14.40;62.20
70456;DHT22;57916;51.996;5.180;2023-05-16T05:49:20;14.40;62.40
70456;DHT22;57916;51.996;5.180;2023-05-16T05:51:47;14.50;62.00
70456;DHT22;57916;51.996;5.180;2023-05-16T05:54:18;14.60;61.90
70456;DHT22;57916;51.996;5.180;2023-05-16T05:56:45;14.60;61.60
70456;DHT22;57916;51.996;5.180;2023-05-16T05:59:12;14.70;61.60
70456;DHT22;57916;51.996;5.180;2023-05-16T06:01:39;14.70;61.50
70456;DHT22;57916;51.996;5.180;2023-05-16T06:04:06;14.80;61.70
70456;DHT22;57916;51.996;5.180;2023-05-16T06:06:33;14.80;61.30
70456;DHT22;57916;51.996;5.180;2023-05-16T06:09:00;14.90;61.20
70456;DHT22;57916;51.996;5.180;2023-05-16T06:11:27;14.90;61.30
70456;DHT22;57916;51.996;5.180;2023-05-16T06:13:54;15.00;60.90
70456;DHT22;57916;51.996;5.180;2023-05-16T06:16:24;15.10;60.50
70456;DHT22;57916;51.996;5.180;2023-05-16T06:18:52;15.10;60.20
70456;DHT22;57916;51.996;5.180;2023-05-16T06:21:19;15.20;60.00
70456;DHT22;57916;51.996;5.180;2023-05-16T06:23:45;15.30;59.70
70456;DHT22;57916;51.996;5.180;2023-05-16T06:26:12;15.40;60.10
70456;DHT22;57916;51.996;5.180;2023-05-16T06:28:40;15.50;59.40
70456;DHT22;57916;51.996;5.180;2023-05-16T06:31:06;15.60;59.40
70456;DHT22;57916;51.996;5.180;2023-05-16T06:33:33;15.70;58.80
70456;DHT22;57916;51.996;5.180;2023-05-16T06:36:00;15.90;58.60
70456;DHT22;57916;51.996;5.180;2023-05-16T06:38:27;16.10;58.20
70456;DHT22;57916;51.996;5.180;2023-05-16T06:40:54;16.20;58.30
70456;DHT22;57916;51.996;5.180;2023-05-16T06:43:21;16.40;56.80
70456;DHT22;57916;51.996;5.180;2023-05-16T06:45:48;16.60;55.40
70456;DHT22;57916;51.996;5.180;2023-05-16T06:48:17;16.70;54.20
70456;DHT22;57916;51.996;5.180;2023-05-16T06:50:50;16.80;53.90
70456;DHT22;57916;51.996;5.180;2023-05-16T06:53:20;16.90;54.30
70456;DHT22;57916;51.996;5.180;2023-05-16T06:55:46;17.10;54.70
70456;DHT22;57916;51.996;5.180;2023-05-16T06:58:14;17.30;53.50
70456;DHT22;57916;51.996;5.180;2023-05-16T07:00:41;17.50;53.00
70456;DHT22;57916;51.996;5.180;2023-05-16T07:03:09;17.70;52.90
70456;DHT22;57916;51.996;5.180;2023-05-16T07:05:36;17.90;51.20
70456;DHT22;57916;51.996;5.180;2023-05-16T07:08:04;18.20;51.10
70456;DHT22;57916;51.996;5.180;2023-05-16T07:10:33;18.40;50.70
70456;DHT22;57916;51.996;5.180;2023-05-16T07:13:01;18.50;49.80
70456;DHT22;57916;51.996;5.180;2023-05-16T07:15:27;18.70;49.80
70456;DHT22;57916;51.996;5.180;2023-05-16T07:17:55;18.90;49.30
70456;DHT22;57916;51.996;5.180;2023-05-16T07:20:23;19.10;47.80
70456;DHT22;57916;51.996;5.180;2023-05-16T07:22:50;19.20;46.70
70456;DHT22;57916;51.996;5.180;2023-05-16T07:25:17;19.40;47.30
70456;DHT22;57916;51.996;5.180;2023-05-16T07:27:44;19.60;46.90
70456;DHT22;57916;51.996;5.180;2023-05-16T07:30:12;19.70;45.90
70456;DHT22;57916;51.996;5.180;2023-05-16T07:32:39;19.90;46.20
70456;DHT22;57916;51.996;5.180;2023-05-16T07:35:07;20.10;44.80
70456;DHT22;57916;51.996;5.180;2023-05-16T07:37:34;20.30;44.50
70456;DHT22;57916;51.996;5.180;2023-05-16T07:40:02;20.50;45.70
70456;DHT22;57916;51.996;5.180;2023-05-16T07:42:30;20.70;44.80
70456;DHT22;57916;51.996;5.180;2023-05-16T07:44:57;20.80;43.80
70456;DHT22;57916;51.996;5.180;2023-05-16T07:47:24;21.00;42.50
70456;DHT22;57916;51.996;5.180;2023-05-16T07:49:51;21.10;42.70
70456;DHT22;57916;51.996;5.180;2023-05-16T07:52:18;21.20;42.70
70456;DHT22;57916;51.996;5.180;2023-05-16T07:54:46;21.30;41.70
70456;DHT22;57916;51.996;5.180;2023-05-16T07:57:14;21.30;40.20
70456;DHT22;57916;51.996;5.180;2023-05-16T07:59:41;21.30;40.00
70456;DHT22;57916;51.996;5.180;2023-05-16T08:02:09;21.10;41.00
70456;DHT22;57916;51.996;5.180;2023-05-16T08:04:36;21.00;41.30
70456;DHT22;57916;51.996;5.180;2023-05-16T08:07:04;20.80;41.10
70456;DHT22;57916;51.996;5.180;2023-05-16T08:09:31;20.60;40.10
70456;DHT22;57916;51.996;5.180;2023-05-16T08:11:58;20.40;40.80
70456;DHT22;57916;51.996;5.180;2023-05-16T08:14:30;20.10;42.20
70456;DHT22;57916;51.996;5.180;2023-05-16T08:16:58;20.00;43.00
70456;DHT22;57916;51.996;5.180;2023-05-16T08:19:26;20.10;44.40
70456;DHT22;57916;51.996;5.180;2023-05-16T08:21:54;20.20;45.80
70456;DHT22;57916;51.996;5.180;2023-05-16T08:24:21;20.50;45.60
70456;DHT22;57916;51.996;5.180;2023-05-16T08:26:47;20.80;46.10
70456;DHT22;57916;51.996;5.180;2023-05-16T08:29:15;21.10;44.30
70456;DHT22;57916;51.996;5.180;2023-05-16T08:31:42;21.20;41.70
70456;DHT22;57916;51.996;5.180;2023-05-16T08:34:09;21.30;41.60
70456;DHT22;57916;51.996;5.180;2023-05-16T08:36:36;21.40;42.60
70456;DHT22;57916;51.996;5.180;2023-05-16T08:39:04;21.50;40.70
70456;DHT22;57916;51.996;5.180;2023-05-16T08:41:31;21.70;41.00
70456;DHT22;57916;51.996;5.180;2023-05-16T08:43:58;21.90;40.10
70456;DHT22;57916;51.996;5.180;2023-05-16T08:46:27;22.00;39.30
70456;DHT22;57916;51.996;5.180;2023-05-16T08:48:58;22.10;38.70
70456;DHT22;57916;51.996;5.180;2023-05-16T08:51:26;22.20;39.30
70456;DHT22;57916;51.996;5.180;2023-05-16T08:53:59;22.40;39.40
70456;DHT22;57916;51.996;5.180;2023-05-16T08:56:28;22.30;39.30
70456;DHT22;57916;51.996;5.180;2023-05-16T08:58:56;22.40;40.70
70456;DHT22;57916;51.996;5.180;2023-05-16T09:01:26;22.50;38.40
70456;DHT22;57916;51.996;5.180;2023-05-16T09:03:54;22.50;37.90
70456;DHT22;57916;51.996;5.180;2023-05-16T09:06:22;22.60;38.80
70456;DHT22;57916;51.996;5.180;2023-05-16T09:08:49;22.70;38.30
70456;DHT22;57916;51.996;5.180;2023-05-16T09:11:16;22.90;38.50
70456;DHT22;57916;51.996;5.180;2023-05-16T09:13:44;23.00;37.80
70456;DHT22;57916;51.996;5.180;2023-05-16T09:16:13;23.00;36.90
70456;DHT22;57916;51.996;5.180;2023-05-16T09:18:42;22.80;35.90
70456;DHT22;57916;51.996;5.180;2023-05-16T09:21:11;22.60;35.00
70456;DHT22;57916;51.996;5.180;2023-05-16T09:23:39;22.40;36.80
70456;DHT22;57916;51.996;5.180;2023-05-16T09:26:07;22.30;37.40
70456;DHT22;57916;51.996;5.180;2023-05-16T09:28:37;22.20;37.80
70456;DHT22;57916;51.996;5.180;2023-05-16T09:31:19;22.00;37.80
70456;DHT22;57916;51.996;5.180;2023-05-16T09:33:47;21.80;38.90
70456;DHT22;57916;51.996;5.180;2023-05-16T09:36:15;21.70;41.50
70456;DHT22;57916;51.996;5.180;2023-05-16T09:38:43;21.70;37.70
70456;DHT22;57916;51.996;5.180;2023-05-16T09:41:10;21.70;38.10
70456;DHT22;57916;51.996;5.180;2023-05-16T09:43:39;21.70;38.20
70456;DHT22;57916;51.996;5.180;2023-05-16T09:46:08;21.60;38.10
70456;DHT22;57916;51.996;5.180;2023-05-16T09:48:46;21.50;38.00
70456;DHT22;57916;51.996;5.180;2023-05-16T09:51:13;21.30;38.50
70456;DHT22;57916;51.996;5.180;2023-05-16T09:53:40;21.20;39.30
70456;DHT22;57916;51.996;5.180;2023-05-16T09:56:12;21.00;38.70
70456;DHT22;57916;51.996;5.180;2023-05-16T09:58:40;20.90;39.70
70456;DHT22;57916;51.996;5.180;2023-05-16T10:01:09;20.80;40.90
70456;DHT22;57916;51.996;5.180;2023-05-16T10:03:39;20.90;41.80
70456;DHT22;57916;51.996;5.180;2023-05-16T10:06:07;21.10;40.70
70456;DHT22;57916;51.996;5.180;2023-05-16T10:08:35;21.30;40.40
70456;DHT22;57916;51.996;5.180;2023-05-16T10:11:04;21.60;40.30
70456;DHT22;57916;51.996;5.180;2023-05-16T10:13:35;21.80;40.50
70456;DHT22;57916;51.996;5.180;2023-05-16T10:16:21;22.00;38.70
70456;DHT22;57916;51.996;5.180;2023-05-16T10:18:50;22.00;38.60
70456;DHT22;57916;51.996;5.180;2023-05-16T10:21:18;22.00;37.40
70456;DHT22;57916;51.996;5.180;2023-05-16T10:23:49;21.90;37.30
70456;DHT22;57916;51.996;5.180;2023-05-16T10:26:17;21.70;38.30
70456;DHT22;57916;51.996;5.180;2023-05-16T10:28:47;21.50;38.80
70456;DHT22;57916;51.996;5.180;2023-05-16T10:31:14;21.40;39.00
70456;DHT22;57916;51.996;5.180;2023-05-16T10:33:42;21.30;39.30
70456;DHT22;57916;51.996;5.180;2023-05-16T10:36:10;21.20;39.40
70456;DHT22;57916;51.996;5.180;2023-05-16T10:38:38;21.00;38.30
70456;DHT22;57916;51.996;5.180;2023-05-16T10:41:06;20.90;39.30
70456;DHT22;57916;51.996;5.180;2023-05-16T10:43:34;20.80;39.50
70456;DHT22;57916;51.996;5.180;2023-05-16T10:46:07;20.70;39.10
70456;DHT22;57916;51.996;5.180;2023-05-16T10:48:39;20.60;40.20
70456;DHT22;57916;51.996;5.180;2023-05-16T10:54:02;20.60;40.00
70456;DHT22;57916;51.996;5.180;2023-05-16T10:56:32;20.60;39.90
70456;DHT22;57916;51.996;5.180;2023-05-16T10:58:59;20.60;39.60
70456;DHT22;57916;51.996;5.180;2023-05-16T11:06:25;20.50;40.50
70456;DHT22;57916;51.996;5.180;2023-05-16T11:11:44;20.50;40.50
70456;DHT22;57916;51.996;5.180;2023-05-16T11:19:46;20.60;39.30
70456;DHT22;57916;51.996;5.180;2023-05-16T11:24:59;20.50;40.60
70456;DHT22;57916;51.996;5.180;2023-05-16T11:27:44;20.50;40.10
70456;DHT22;57916;51.996;5.180;2023-05-16T11:30:13;20.50;40.10
70456;DHT22;57916;51.996;5.180;2023-05-16T11:32:43;20.50;40.10
70456;DHT22;57916;51.996;5.180;2023-05-16T11:35:12;20.40;40.30
70456;DHT22;57916;51.996;5.180;2023-05-16T11:37:41;20.40;40.50
70456;DHT22;57916;51.996;5.180;2023-05-16T11:40:10;20.40;40.20
70456;DHT22;57916;51.996;5.180;2023-05-16T11:42:40;20.40;41.10
70456;DHT22;57916;51.996;5.180;2023-05-16T11:45:15;20.40;41.60
70456;DHT22;57916;51.996;5.180;2023-05-16T11:47:44;20.40;40.60
70456;DHT22;57916;51.996;5.180;2023-05-16T11:50:19;20.40;40.10
70456;DHT22;57916;51.996;5.180;2023-05-16T11:52:48;20.40;39.90
70456;DHT22;57916;51.996;5.180;2023-05-16T11:55:20;20.40;39.10
70456;DHT22;57916;51.996;5.180;2023-05-16T11:58:06;20.40;39.70
70456;DHT22;57916;51.996;5.180;2023-05-16T12:00:33;20.30;40.40
70456;DHT22;57916;51.996;5.180;2023-05-16T12:03:02;20.30;40.90
70456;DHT22;57916;51.996;5.180;2023-05-16T12:05:31;20.20;41.50
70456;DHT22;57916;51.996;5.180;2023-05-16T12:08:01;20.10;41.00
70456;DHT22;57916;51.996;5.180;2023-05-16T12:10:31;20.10;41.20
70456;DHT22;57916;51.996;5.180;2023-05-16T12:13:01;20.00;42.50
70456;DHT22;57916;51.996;5.180;2023-05-16T12:15:29;20.00;41.80
70456;DHT22;57916;51.996;5.180;2023-05-16T12:17:57;19.90;41.30
70456;DHT22;57916;51.996;5.180;2023-05-16T12:20:24;19.80;41.60
70456;DHT22;57916;51.996;5.180;2023-05-16T12:22:52;19.80;41.70
70456;DHT22;57916;51.996;5.180;2023-05-16T12:25:25;19.70;41.80
70456;DHT22;57916;51.996;5.180;2023-05-16T12:28:01;19.60;41.60
70456;DHT22;57916;51.996;5.180;2023-05-16T12:30:30;19.60;42.30
70456;DHT22;57916;51.996;5.180;2023-05-16T12:32:59;19.60;42.20
70456;DHT22;57916;51.996;5.180;2023-05-16T12:35:32;19.60;43.00
70456;DHT22;57916;51.996;5.180;2023-05-16T12:38:03;19.60;42.00
70456;DHT22;57916;51.996;5.180;2023-05-16T12:40:30;19.60;42.80
70456;DHT22;57916;51.996;5.180;2023-05-16T12:42:57;19.60;42.30
70456;DHT22;57916;51.996;5.180;2023-05-16T12:45:26;19.60;41.80
70456;DHT22;57916;51.996;5.180;2023-05-16T12:47:54;19.60;41.30
70456;DHT22;57916;51.996;5.180;2023-05-16T12:50:21;19.50;41.90
70456;DHT22;57916;51.996;5.180;2023-05-16T12:52:50;19.50;42.10
70456;DHT22;57916;51.996;5.180;2023-05-16T12:55:18;19.50;43.60
70456;DHT22;57916;51.996;5.180;2023-05-16T12:57:47;19.50;43.00
70456;DHT22;57916;51.996;5.180;2023-05-16T13:00:16;19.60;42.30
70456;DHT22;57916;51.996;5.180;2023-05-16T13:02:45;19.60;40.80
70456;DHT22;57916;51.996;5.180;2023-05-16T13:05:13;19.70;41.50
70456;DHT22;57916;51.996;5.180;2023-05-16T13:07:40;19.70;41.30
70456;DHT22;57916;51.996;5.180;2023-05-16T13:10:11;19.80;42.00
70456;DHT22;57916;51.996;5.180;2023-05-16T13:12:39;19.80;42.50
70456;DHT22;57916;51.996;5.180;2023-05-16T13:15:07;19.70;41.40
70456;DHT22;57916;51.996;5.180;2023-05-16T13:17:39;19.60;41.00
70456;DHT22;57916;51.996;5.180;2023-05-16T13:20:06;19.60;41.10
70456;DHT22;57916;51.996;5.180;2023-05-16T13:22:36;19.50;42.10
70456;DHT22;57916;51.996;5.180;2023-05-16T13:25:03;19.50;42.30
70456;DHT22;57916;51.996;5.180;2023-05-16T13:27:32;19.50;42.80
70456;DHT22;57916;51.996;5.180;2023-05-16T13:30:00;19.50;43.10
70456;DHT22;57916;51.996;5.180;2023-05-16T13:32:27;19.50;41.50
70456;DHT22;57916;51.996;5.180;2023-05-16T13:34:53;19.50;42.60
70456;DHT22;57916;51.996;5.180;2023-05-16T13:37:20;19.60;43.20
70456;DHT22;57916;51.996;5.180;2023-05-16T13:39:50;19.60;43.00
70456;DHT22;57916;51.996;5.180;2023-05-16T13:42:17;19.70;43.10
70456;DHT22;57916;51.996;5.180;2023-05-16T13:44:44;19.80;41.00
70456;DHT22;57916;51.996;5.180;2023-05-16T13:47:11;19.90;40.70
70456;DHT22;57916;51.996;5.180;2023-05-16T13:49:38;19.90;40.60
70456;DHT22;57916;51.996;5.180;2023-05-16T13:52:05;19.90;41.40
70456;DHT22;57916;51.996;5.180;2023-05-16T13:54:32;19.90;41.10
70456;DHT22;57916;51.996;5.180;2023-05-16T13:56:59;19.90;41.30
70456;DHT22;57916;51.996;5.180;2023-05-16T13:59:28;19.90;41.10
70456;DHT22;57916;51.996;5.180;2023-05-16T14:02:14;19.90;40.90
70456;DHT22;57916;51.996;5.180;2023-05-16T14:04:41;19.90;42.20
70456;DHT22;57916;51.996;5.180;2023-05-16T14:07:08;19.90;42.40
70456;DHT22;57916;51.996;5.180;2023-05-16T14:09:35;20.00;41.60
70456;DHT22;57916;51.996;5.180;2023-05-16T14:12:05;20.00;41.40
70456;DHT22;57916;51.996;5.180;2023-05-16T14:14:34;20.00;42.20
70456;DHT22;57916;51.996;5.180;2023-05-16T14:17:01;20.00;43.70
70456;DHT22;57916;51.996;5.180;2023-05-16T14:19:30;20.00;42.30
70456;DHT22;57916;51.996;5.180;2023-05-16T14:21:57;20.00;41.60
70456;DHT22;57916;51.996;5.180;2023-05-16T14:24:24;20.10;41.50
70456;DHT22;57916;51.996;5.180;2023-05-16T14:26:51;20.10;41.60
70456;DHT22;57916;51.996;5.180;2023-05-16T14:29:24;20.10;41.00
70456;DHT22;57916;51.996;5.180;2023-05-16T14:31:51;20.10;40.40
70456;DHT22;57916;51.996;5.180;2023-05-16T14:34:19;20.00;40.80
70456;DHT22;57916;51.996;5.180;2023-05-16T14:36:46;20.00;40.20
70456;DHT22;57916;51.996;5.180;2023-05-16T14:39:13;20.00;40.90
70456;DHT22;57916;51.996;5.180;2023-05-16T14:41:40;20.00;40.80
70456;DHT22;57916;51.996;5.180;2023-05-16T14:44:07;20.00;40.60
70456;DHT22;57916;51.996;5.180;2023-05-16T14:46:34;20.00;41.00
70456;DHT22;57916;51.996;5.180;2023-05-16T14:49:01;20.00;40.60
70456;DHT22;57916;51.996;5.180;2023-05-16T14:51:28;19.90;40.70
70456;DHT22;57916;51.996;5.180;2023-05-16T14:53:58;19.90;40.50
70456;DHT22;57916;51.996;5.180;2023-05-16T14:56:25;19.90;40.20
70456;DHT22;57916;51.996;5.180;2023-05-16T14:58:52;20.00;40.60
70456;DHT22;57916;51.996;5.180;2023-05-16T15:01:19;20.00;41.20
70456;DHT22;57916;51.996;5.180;2023-05-16T15:03:47;20.00;41.80
70456;DHT22;57916;51.996;5.180;2023-05-16T15:06:22;20.00;41.00
70456;DHT22;57916;51.996;5.180;2023-05-16T15:08:49;20.00;41.50
70456;DHT22;57916;51.996;5.180;2023-05-16T15:11:16;20.00;40.90
70456;DHT22;57916;51.996;5.180;2023-05-16T15:13:43;20.00;40.40
70456;DHT22;57916;51.996;5.180;2023-05-16T15:16:11;20.00;41.20
70456;DHT22;57916;51.996;5.180;2023-05-16T15:18:37;20.00;41.60
70456;DHT22;57916;51.996;5.180;2023-05-16T15:21:05;20.00;40.90
70456;DHT22;57916;51.996;5.180;2023-05-16T15:23:32;20.00;41.80
70456;DHT22;57916;51.996;5.180;2023-05-16T15:25:59;20.00;42.00
70456;DHT22;57916;51.996;5.180;2023-05-16T15:28:26;19.90;41.90
70456;DHT22;57916;51.996;5.180;2023-05-16T15:30:53;19.90;42.90
70456;DHT22;57916;51.996;5.180;2023-05-16T15:33:20;19.90;41.90
70456;DHT22;57916;51.996;5.180;2023-05-16T15:35:47;19.80;42.50
70456;DHT22;57916;51.996;5.180;2023-05-16T15:38:14;19.80;42.30
70456;DHT22;57916;51.996;5.180;2023-05-16T15:40:41;19.90;43.00
70456;DHT22;57916;51.996;5.180;2023-05-16T15:43:08;19.90;41.30
70456;DHT22;57916;51.996;5.180;2023-05-16T15:45:35;19.90;41.60
70456;DHT22;57916;51.996;5.180;2023-05-16T15:48:05;19.90;42.80
70456;DHT22;57916;51.996;5.180;2023-05-16T15:50:33;20.00;43.70
70456;DHT22;57916;51.996;5.180;2023-05-16T15:53:01;20.00;42.50
70456;DHT22;57916;51.996;5.180;2023-05-16T15:55:28;20.00;41.50
70456;DHT22;57916;51.996;5.180;2023-05-16T15:57:56;20.00;41.60
70456;DHT22;57916;51.996;5.180;2023-05-16T16:00:24;20.00;42.20
70456;DHT22;57916;51.996;5.180;2023-05-16T16:02:51;20.00;41.70
70456;DHT22;57916;51.996;5.180;2023-05-16T16:05:18;20.00;41.60
70456;DHT22;57916;51.996;5.180;2023-05-16T16:07:46;20.00;40.90
70456;DHT22;57916;51.996;5.180;2023-05-16T16:10:13;20.00;41.40
70456;DHT22;57916;51.996;5.180;2023-05-16T16:12:39;19.90;41.70
70456;DHT22;57916;51.996;5.180;2023-05-16T16:15:08;19.80;42.30